This is the latest recevied weather packets stored in our database for station/object K5OLV. If no packets are shown the sender has not sent any weather packets the latest 10 day(s).
| Time | Temp. | Humidity | Pressure | Rain* | Wind** | Luminosity | Snow |
|---|---|---|---|---|---|---|---|
| 1777949757 | 16.67° C | 60% | 1011.6 hPa | 0 mm | - | 0 W/m² | - |
| 1777949457 | 16.67° C | 61% | 1011.9 hPa | 0 mm | - | 0 W/m² | - |
| 1777949153 | 16.67° C | 58% | 1011.7 hPa | 0 mm | - | 0 W/m² | - |
| 1777948850 | 16.67° C | 59% | 1011.9 hPa | 0 mm | - | 0 W/m² | - |
| 1777948548 | 16.67° C | 60% | 1011.9 hPa | 0 mm | - | 0 W/m² | - |
| 1777948245 | 17.22° C | 60% | 1011.5 hPa | 0 mm | - | 0 W/m² | - |
| 1777947943 | 17.22° C | 58% | 1011.6 hPa | 0 mm | - | 0 W/m² | - |
| 1777947640 | 16.67° C | 58% | 1011.9 hPa | 0 mm | - | 0 W/m² | - |
| 1777947336 | 16.67° C | 59% | 1011.9 hPa | 0 mm | - | 0 W/m² | - |
| 1777947033 | 16.11° C | 59% | 1011.7 hPa | 0 mm | - | 0 W/m² | - |
| 1777946732 | 16.67° C | 59% | 1011.5 hPa | 0 mm | - | 0 W/m² | - |
| 1777946430 | 16.67° C | 59% | 1011.6 hPa | 0 mm | - | 0 W/m² | - |
| 1777946127 | 16.67° C | 58% | 1011.5 hPa | 0 mm | - | 0 W/m² | - |
| 1777945824 | 16.67° C | 56% | 1011.4 hPa | 0 mm | - | 0 W/m² | - |
| 1777945521 | 16.67° C | 58% | 1011.4 hPa | 0 mm | - | 0 W/m² | - |
| 1777945218 | 16.67° C | 59% | 1011.5 hPa | 0 mm | - | 0 W/m² | - |
| 1777944915 | 17.22° C | 55% | 1011.2 hPa | 0 mm | - | 0 W/m² | - |
| 1777944612 | 17.22° C | 57% | 1011.6 hPa | 0 mm | - | 0 W/m² | - |
| 1777944310 | 17.22° C | 56% | 1011.3 hPa | 0 mm | - | 0 W/m² | - |
| 1777944007 | 17.78° C | 56% | 1011 hPa | 0 mm | - | 0 W/m² | - |
| 1777943702 | 17.78° C | 56% | 1011.3 hPa | 0 mm | - | 0 W/m² | - |
| 1777943400 | 17.78° C | 58% | 1011.3 hPa | 0 mm | - | 0 W/m² | - |
| 1777943095 | 17.78° C | 54% | 1011.1 hPa | 0 mm | - | 0 W/m² | - |
| 1777942792 | 17.78° C | 53% | 1011 hPa | 0 mm | - | 0 W/m² | - |
| 1777942488 | 17.78° C | 56% | 1011.1 hPa | 0 mm | - | 0 W/m² | - |
* Rain latest hour (hover to see other rain measurements)
** Current wind speed in m/s (hover to see current wind gust speed)